首页
METAR-TAF:

METAR-TAF

机场 :

Ozark, 阿拉巴马州, 美国

纬度: 31-17N, 经度: 085-43W, 海拔: 91米

当前天气观测

该预报发布于39分钟前的10:56 UTC
静风
温度 5°C
湿度 93%
气压 1020 hPa
能見度: 16.1公里
天空无云

METAR: KOZR 181056Z AUTO 00000KT 10SM CLR 05/04 A3012 RMK AO2 SLPNO T00510039

时间: 05:35 (11:35 UTC)

预报

该预报发布于3小时和35分钟前的08:00 UTC
预报有效从18日的 08点(UTC)到 19日的 14点(UTC)
风速4节,风向北转西北
能見度: 4800
少量云层高于20000英尺
轻雾
短暂存在
从 18日的 10点(UTC)到 18日的 13点(UTC)
能見度: 1600
轻雾
成为
从 18日的 15点(UTC)到 18日的 16点(UTC)
风速5节,风向
能见度10公里或以上
散云层高于25000英尺
成为
从 19日的 05点(UTC)到 19日的 06点(UTC)
风速6节,风向多变
能見度: 3200
散云层高于25000英尺
轻雾
短暂存在
从 19日的 08点(UTC)到 19日的 12点(UTC)
能見度: 1600
轻雾
成为
从 19日的 11点(UTC)到 19日的 12点(UTC)
风速6节,风向多变
能見度: 2000
少量云层高于16000英尺
轻雾

TAF: KOZR 180800Z 1808/1914 34004KT 4800 BR FEW200 QNH3013INS TEMPO 1810/1813 1600 BR BECMG 1815/1816 36005KT 9999 NSW SCT250 QNH3012INS BECMG 1905/1906 VRB06KT 3200 BR SCT250 QNH3009INS TEMPO 1908/1912 1600 BR BECMG 1911/1912 VRB06KT 2000 BR FEW160 QNH3010INS TX09/1820Z TN04/1811Z

超过4000个机场的气象观测和天气预报(METAR&TAF报告)。

可查询的气象台以黄色和红色小点在地图上表示。

将鼠标移到小点上方,可查看气象台名称。

然后点击查看天气观测和预报。

如需切换地图:点击带黑十字的绿色按钮放大地图;点击带横线的绿色按钮缩小地图;或者点击绿色箭头查看邻近地区的地图。


METAR-TAF: